sensor_id;sensor_type;location;lat;lon;timestamp;P1;durP1;ratioP1;P2;durP2;ratioP2
1505;SDS011;744;51.436;7.356;2023-03-29T00:02:02;3.83;;;1.93;;
1505;SDS011;744;51.436;7.356;2023-03-29T00:04:29;2.67;;;2.27;;
1505;SDS011;744;51.436;7.356;2023-03-29T00:06:56;2.60;;;1.73;;
1505;SDS011;744;51.436;7.356;2023-03-29T00:09:29;1.80;;;1.70;;
1505;SDS011;744;51.436;7.356;2023-03-29T00:11:58;6.47;;;2.50;;
1505;SDS011;744;51.436;7.356;2023-03-29T00:14:25;2.90;;;2.03;;
1505;SDS011;744;51.436;7.356;2023-03-29T00:16:54;2.57;;;2.10;;
1505;SDS011;744;51.436;7.356;2023-03-29T00:19:21;2.20;;;2.00;;
1505;SDS011;744;51.436;7.356;2023-03-29T00:21:48;1.90;;;1.77;;
1505;SDS011;744;51.436;7.356;2023-03-29T00:24:15;3.27;;;2.37;;
1505;SDS011;744;51.436;7.356;2023-03-29T00:26:42;1.63;;;1.43;;
1505;SDS011;744;51.436;7.356;2023-03-29T00:29:09;3.67;;;2.20;;
1505;SDS011;744;51.436;7.356;2023-03-29T00:31:35;2.20;;;2.00;;
1505;SDS011;744;51.436;7.356;2023-03-29T00:34:02;4.57;;;2.40;;
1505;SDS011;744;51.436;7.356;2023-03-29T00:36:29;3.30;;;2.13;;
1505;SDS011;744;51.436;7.356;2023-03-29T00:38:56;4.30;;;2.20;;
1505;SDS011;744;51.436;7.356;2023-03-29T00:41:23;2.80;;;2.20;;
1505;SDS011;744;51.436;7.356;2023-03-29T00:46:23;2.10;;;1.90;;
1505;SDS011;744;51.436;7.356;2023-03-29T00:48:53;3.83;;;1.97;;
1505;SDS011;744;51.436;7.356;2023-03-29T00:51:23;2.30;;;1.77;;
1505;SDS011;744;51.436;7.356;2023-03-29T00:53:55;2.80;;;2.60;;
1505;SDS011;744;51.436;7.356;2023-03-29T00:56:35;2.33;;;2.10;;
1505;SDS011;744;51.436;7.356;2023-03-29T00:59:06;1.80;;;1.70;;
1505;SDS011;744;51.436;7.356;2023-03-29T01:01:46;1.97;;;1.87;;
1505;SDS011;744;51.436;7.356;2023-03-29T01:04:22;2.60;;;2.20;;
1505;SDS011;744;51.436;7.356;2023-03-29T01:09:58;4.03;;;2.33;;
1505;SDS011;744;51.436;7.356;2023-03-29T01:12:32;3.93;;;2.20;;
1505;SDS011;744;51.436;7.356;2023-03-29T01:15:10;4.90;;;1.73;;
1505;SDS011;744;51.436;7.356;2023-03-29T01:17:39;2.27;;;2.07;;
1505;SDS011;744;51.436;7.356;2023-03-29T01:20:11;2.40;;;2.20;;
1505;SDS011;744;51.436;7.356;2023-03-29T01:25:45;2.30;;;2.10;;
1505;SDS011;744;51.436;7.356;2023-03-29T01:28:30;2.17;;;1.97;;
1505;SDS011;744;51.436;7.356;2023-03-29T01:31:04;4.27;;;1.93;;
1505;SDS011;744;51.436;7.356;2023-03-29T01:33:46;3.53;;;2.13;;
1505;SDS011;744;51.436;7.356;2023-03-29T01:36:28;4.97;;;2.20;;
1505;SDS011;744;51.436;7.356;2023-03-29T01:39:07;2.90;;;2.70;;
1505;SDS011;744;51.436;7.356;2023-03-29T01:41:54;2.27;;;1.90;;
1505;SDS011;744;51.436;7.356;2023-03-29T01:44:46;2.30;;;2.10;;
1505;SDS011;744;51.436;7.356;2023-03-29T01:50:01;2.40;;;2.20;;
1505;SDS011;744;51.436;7.356;2023-03-29T01:52:41;3.77;;;1.80;;
1505;SDS011;744;51.436;7.356;2023-03-29T01:55:16;1.60;;;1.50;;
1505;SDS011;744;51.436;7.356;2023-03-29T01:57:47;2.90;;;2.10;;
1505;SDS011;744;51.436;7.356;2023-03-29T02:00:16;2.00;;;1.90;;
1505;SDS011;744;51.436;7.356;2023-03-29T02:02:46;2.23;;;1.70;;
1505;SDS011;744;51.436;7.356;2023-03-29T02:05:16;2.17;;;1.70;;
1505;SDS011;744;51.436;7.356;2023-03-29T02:07:47;3.40;;;2.13;;
1505;SDS011;744;51.436;7.356;2023-03-29T02:10:15;2.47;;;2.10;;
1505;SDS011;744;51.436;7.356;2023-03-29T02:12:43;11.20;;;1.70;;
1505;SDS011;744;51.436;7.356;2023-03-29T02:15:11;1.97;;;1.77;;
1505;SDS011;744;51.436;7.356;2023-03-29T02:17:40;3.90;;;2.03;;
1505;SDS011;744;51.436;7.356;2023-03-29T02:20:11;3.67;;;2.40;;
1505;SDS011;744;51.436;7.356;2023-03-29T02:22:45;1.60;;;1.50;;
1505;SDS011;744;51.436;7.356;2023-03-29T02:25:43;2.10;;;1.90;;
1505;SDS011;744;51.436;7.356;2023-03-29T02:28:11;3.77;;;1.83;;
1505;SDS011;744;51.436;7.356;2023-03-29T02:30:50;2.17;;;1.90;;
1505;SDS011;744;51.436;7.356;2023-03-29T02:33:55;2.20;;;1.67;;
1505;SDS011;744;51.436;7.356;2023-03-29T02:39:05;1.70;;;1.60;;
1505;SDS011;744;51.436;7.356;2023-03-29T02:41:35;2.30;;;1.80;;
1505;SDS011;744;51.436;7.356;2023-03-29T02:44:04;2.33;;;1.80;;
1505;SDS011;744;51.436;7.356;2023-03-29T02:46:33;4.50;;;1.83;;
1505;SDS011;744;51.436;7.356;2023-03-29T02:49:03;1.87;;;1.73;;
1505;SDS011;744;51.436;7.356;2023-03-29T02:51:31;3.10;;;2.13;;
1505;SDS011;744;51.436;7.356;2023-03-29T02:56:39;1.80;;;1.70;;
1505;SDS011;744;51.436;7.356;2023-03-29T02:59:10;3.93;;;2.47;;
1505;SDS011;744;51.436;7.356;2023-03-29T03:01:39;2.23;;;1.60;;
1505;SDS011;744;51.436;7.356;2023-03-29T03:04:10;1.77;;;1.67;;
1505;SDS011;744;51.436;7.356;2023-03-29T03:06:39;2.53;;;1.90;;
1505;SDS011;744;51.436;7.356;2023-03-29T03:09:06;2.80;;;2.30;;
1505;SDS011;744;51.436;7.356;2023-03-29T03:11:33;2.60;;;2.27;;
1505;SDS011;744;51.436;7.356;2023-03-29T03:14:00;3.23;;;2.20;;
1505;SDS011;744;51.436;7.356;2023-03-29T03:16:27;2.77;;;2.37;;
1505;SDS011;744;51.436;7.356;2023-03-29T03:18:54;2.73;;;2.23;;
1505;SDS011;744;51.436;7.356;2023-03-29T03:21:21;1.90;;;1.80;;
1505;SDS011;744;51.436;7.356;2023-03-29T03:23:48;1.80;;;1.70;;
1505;SDS011;744;51.436;7.356;2023-03-29T03:26:15;3.17;;;1.93;;
1505;SDS011;744;51.436;7.356;2023-03-29T03:28:43;3.00;;;2.23;;
1505;SDS011;744;51.436;7.356;2023-03-29T03:31:13;1.77;;;1.67;;
1505;SDS011;744;51.436;7.356;2023-03-29T03:33:40;2.30;;;2.10;;
1505;SDS011;744;51.436;7.356;2023-03-29T03:36:07;2.03;;;1.90;;
1505;SDS011;744;51.436;7.356;2023-03-29T03:38:36;1.90;;;1.73;;
1505;SDS011;744;51.436;7.356;2023-03-29T03:41:03;2.57;;;2.20;;
1505;SDS011;744;51.436;7.356;2023-03-29T03:43:32;2.00;;;1.27;;
1505;SDS011;744;51.436;7.356;2023-03-29T03:45:59;3.30;;;2.20;;
1505;SDS011;744;51.436;7.356;2023-03-29T03:48:27;1.73;;;1.63;;
1505;SDS011;744;51.436;7.356;2023-03-29T03:50:54;2.80;;;1.70;;
1505;SDS011;744;51.436;7.356;2023-03-29T03:53:24;2.90;;;1.60;;
1505;SDS011;744;51.436;7.356;2023-03-29T03:55:52;4.93;;;2.13;;
1505;SDS011;744;51.436;7.356;2023-03-29T03:58:23;1.70;;;1.43;;
1505;SDS011;744;51.436;7.356;2023-03-29T04:00:50;3.10;;;1.60;;
1505;SDS011;744;51.436;7.356;2023-03-29T04:03:17;3.23;;;1.60;;
1505;SDS011;744;51.436;7.356;2023-03-29T04:05:44;1.87;;;1.70;;
1505;SDS011;744;51.436;7.356;2023-03-29T04:08:12;2.40;;;1.60;;
1505;SDS011;744;51.436;7.356;2023-03-29T04:10:39;1.80;;;1.63;;
1505;SDS011;744;51.436;7.356;2023-03-29T04:13:06;3.23;;;1.77;;
1505;SDS011;744;51.436;7.356;2023-03-29T04:15:33;6.40;;;1.90;;
1505;SDS011;744;51.436;7.356;2023-03-29T04:18:03;2.80;;;1.90;;
1505;SDS011;744;51.436;7.356;2023-03-29T04:20:33;2.30;;;1.70;;
1505;SDS011;744;51.436;7.356;2023-03-29T04:23:00;3.70;;;1.90;;
1505;SDS011;744;51.436;7.356;2023-03-29T04:25:27;3.13;;;2.30;;
1505;SDS011;744;51.436;7.356;2023-03-29T04:27:54;3.73;;;1.80;;
1505;SDS011;744;51.436;7.356;2023-03-29T04:30:21;3.00;;;1.90;;
1505;SDS011;744;51.436;7.356;2023-03-29T04:32:48;4.00;;;1.87;;
1505;SDS011;744;51.436;7.356;2023-03-29T04:35:15;3.33;;;2.27;;
1505;SDS011;744;51.436;7.356;2023-03-29T04:37:43;3.10;;;1.90;;
1505;SDS011;744;51.436;7.356;2023-03-29T04:40:10;4.27;;;2.27;;
1505;SDS011;744;51.436;7.356;2023-03-29T04:42:39;2.77;;;1.83;;
1505;SDS011;744;51.436;7.356;2023-03-29T04:45:11;2.40;;;2.20;;
1505;SDS011;744;51.436;7.356;2023-03-29T04:47:44;3.37;;;2.43;;
1505;SDS011;744;51.436;7.356;2023-03-29T04:50:11;2.27;;;2.03;;
1505;SDS011;744;51.436;7.356;2023-03-29T04:52:38;2.90;;;2.60;;
1505;SDS011;744;51.436;7.356;2023-03-29T04:55:06;2.70;;;2.10;;
1505;SDS011;744;51.436;7.356;2023-03-29T04:57:33;2.20;;;2.00;;
1505;SDS011;744;51.436;7.356;2023-03-29T05:00:00;2.87;;;2.50;;
1505;SDS011;744;51.436;7.356;2023-03-29T05:02:27;2.03;;;1.83;;
1505;SDS011;744;51.436;7.356;2023-03-29T05:04:57;4.87;;;2.10;;
1505;SDS011;744;51.436;7.356;2023-03-29T05:07:24;2.30;;;2.10;;
1505;SDS011;744;51.436;7.356;2023-03-29T05:09:51;6.10;;;2.30;;
1505;SDS011;744;51.436;7.356;2023-03-29T05:12:18;3.50;;;2.93;;
1505;SDS011;744;51.436;7.356;2023-03-29T05:14:45;4.23;;;2.17;;
1505;SDS011;744;51.436;7.356;2023-03-29T05:17:12;2.20;;;2.00;;
1505;SDS011;744;51.436;7.356;2023-03-29T05:19:39;5.23;;;2.30;;
1505;SDS011;744;51.436;7.356;2023-03-29T05:22:06;3.40;;;2.17;;
1505;SDS011;744;51.436;7.356;2023-03-29T05:24:34;5.00;;;2.53;;
1505;SDS011;744;51.436;7.356;2023-03-29T05:27:01;6.27;;;2.43;;
1505;SDS011;744;51.436;7.356;2023-03-29T05:29:28;4.33;;;2.50;;
1505;SDS011;744;51.436;7.356;2023-03-29T05:31:57;2.53;;;2.20;;
1505;SDS011;744;51.436;7.356;2023-03-29T05:34:24;2.17;;;1.97;;
1505;SDS011;744;51.436;7.356;2023-03-29T05:36:51;3.83;;;3.10;;
1505;SDS011;744;51.436;7.356;2023-03-29T05:39:18;2.60;;;2.13;;
1505;SDS011;744;51.436;7.356;2023-03-29T05:41:46;5.97;;;2.20;;
1505;SDS011;744;51.436;7.356;2023-03-29T05:44:13;6.83;;;3.70;;
1505;SDS011;744;51.436;7.356;2023-03-29T05:46:39;4.57;;;2.83;;
1505;SDS011;744;51.436;7.356;2023-03-29T05:49:07;3.53;;;2.23;;
1505;SDS011;744;51.436;7.356;2023-03-29T05:51:33;3.50;;;2.60;;
1505;SDS011;744;51.436;7.356;2023-03-29T05:54:00;6.53;;;3.33;;
1505;SDS011;744;51.436;7.356;2023-03-29T05:56:27;5.37;;;3.67;;
1505;SDS011;744;51.436;7.356;2023-03-29T05:58:54;4.10;;;2.87;;
1505;SDS011;744;51.436;7.356;2023-03-29T06:01:22;6.50;;;2.73;;
1505;SDS011;744;51.436;7.356;2023-03-29T06:03:50;3.00;;;2.70;;
1505;SDS011;744;51.436;7.356;2023-03-29T06:06:17;7.90;;;4.20;;
1505;SDS011;744;51.436;7.356;2023-03-29T06:08:44;5.87;;;3.40;;
1505;SDS011;744;51.436;7.356;2023-03-29T06:11:11;4.57;;;3.87;;
1505;SDS011;744;51.436;7.356;2023-03-29T06:13:38;2.97;;;2.70;;
1505;SDS011;744;51.436;7.356;2023-03-29T06:16:10;8.97;;;4.40;;
1505;SDS011;744;51.436;7.356;2023-03-29T06:18:38;3.97;;;3.00;;
1505;SDS011;744;51.436;7.356;2023-03-29T06:21:06;3.90;;;3.50;;
1505;SDS011;744;51.436;7.356;2023-03-29T06:23:34;3.50;;;3.20;;
1505;SDS011;744;51.436;7.356;2023-03-29T06:26:02;4.00;;;3.10;;
1505;SDS011;744;51.436;7.356;2023-03-29T06:28:29;5.53;;;3.27;;
1505;SDS011;744;51.436;7.356;2023-03-29T06:30:56;4.43;;;3.27;;
1505;SDS011;744;51.436;7.356;2023-03-29T06:33:28;4.90;;;3.53;;
1505;SDS011;744;51.436;7.356;2023-03-29T06:35:56;3.40;;;3.07;;
1505;SDS011;744;51.436;7.356;2023-03-29T06:38:23;3.40;;;3.10;;
1505;SDS011;744;51.436;7.356;2023-03-29T06:40:58;6.73;;;3.57;;
1505;SDS011;744;51.436;7.356;2023-03-29T06:43:29;5.63;;;4.13;;
1505;SDS011;744;51.436;7.356;2023-03-29T06:45:58;3.43;;;3.13;;
1505;SDS011;744;51.436;7.356;2023-03-29T06:48:26;3.63;;;3.13;;
1505;SDS011;744;51.436;7.356;2023-03-29T06:50:52;4.07;;;2.87;;
1505;SDS011;744;51.436;7.356;2023-03-29T06:53:19;3.20;;;2.90;;
1505;SDS011;744;51.436;7.356;2023-03-29T06:55:48;4.13;;;3.43;;
1505;SDS011;744;51.436;7.356;2023-03-29T06:58:15;3.60;;;2.60;;
1505;SDS011;744;51.436;7.356;2023-03-29T07:00:42;5.63;;;3.30;;
1505;SDS011;744;51.436;7.356;2023-03-29T07:03:09;4.13;;;3.07;;
1505;SDS011;744;51.436;7.356;2023-03-29T07:05:40;3.83;;;2.90;;
1505;SDS011;744;51.436;7.356;2023-03-29T07:08:07;4.03;;;3.40;;
1505;SDS011;744;51.436;7.356;2023-03-29T07:10:37;3.77;;;3.03;;
1505;SDS011;744;51.436;7.356;2023-03-29T07:13:06;4.17;;;3.40;;
1505;SDS011;744;51.436;7.356;2023-03-29T07:15:37;5.60;;;3.30;;
1505;SDS011;744;51.436;7.356;2023-03-29T07:18:06;4.43;;;2.87;;
1505;SDS011;744;51.436;7.356;2023-03-29T07:20:34;3.73;;;3.17;;
1505;SDS011;744;51.436;7.356;2023-03-29T07:23:04;4.33;;;2.63;;
1505;SDS011;744;51.436;7.356;2023-03-29T07:25:32;3.10;;;2.70;;
1505;SDS011;744;51.436;7.356;2023-03-29T07:27:59;5.33;;;3.90;;
1505;SDS011;744;51.436;7.356;2023-03-29T07:30:27;5.13;;;3.57;;
1505;SDS011;744;51.436;7.356;2023-03-29T07:32:57;9.50;;;3.50;;
1505;SDS011;744;51.436;7.356;2023-03-29T07:35:25;2.90;;;2.70;;
1505;SDS011;744;51.436;7.356;2023-03-29T07:37:52;6.40;;;2.93;;
1505;SDS011;744;51.436;7.356;2023-03-29T07:40:21;3.20;;;2.80;;
1505;SDS011;744;51.436;7.356;2023-03-29T07:42:50;7.47;;;3.37;;
1505;SDS011;744;51.436;7.356;2023-03-29T07:45:18;3.50;;;3.00;;
1505;SDS011;744;51.436;7.356;2023-03-29T07:47:53;3.30;;;2.60;;
1505;SDS011;744;51.436;7.356;2023-03-29T07:50:24;5.63;;;2.80;;
1505;SDS011;744;51.436;7.356;2023-03-29T07:52:52;7.07;;;3.20;;
1505;SDS011;744;51.436;7.356;2023-03-29T07:55:19;3.00;;;2.60;;
1505;SDS011;744;51.436;7.356;2023-03-29T07:57:47;2.83;;;2.63;;
1505;SDS011;744;51.436;7.356;2023-03-29T08:00:15;4.20;;;3.27;;
1505;SDS011;744;51.436;7.356;2023-03-29T08:02:45;4.43;;;2.90;;
1505;SDS011;744;51.436;7.356;2023-03-29T08:05:15;5.27;;;3.90;;
1505;SDS011;744;51.436;7.356;2023-03-29T08:07:58;4.93;;;2.77;;
1505;SDS011;744;51.436;7.356;2023-03-29T08:10:26;6.50;;;3.47;;
1505;SDS011;744;51.436;7.356;2023-03-29T08:12:53;2.77;;;2.57;;
1505;SDS011;744;51.436;7.356;2023-03-29T08:15:20;3.37;;;2.37;;
1505;SDS011;744;51.436;7.356;2023-03-29T08:17:48;4.93;;;2.57;;
1505;SDS011;744;51.436;7.356;2023-03-29T08:20:15;6.30;;;2.50;;
1505;SDS011;744;51.436;7.356;2023-03-29T08:22:42;3.40;;;2.47;;
1505;SDS011;744;51.436;7.356;2023-03-29T08:25:09;4.10;;;2.43;;
1505;SDS011;744;51.436;7.356;2023-03-29T08:27:37;5.10;;;2.70;;
1505;SDS011;744;51.436;7.356;2023-03-29T08:30:05;5.23;;;3.37;;
1505;SDS011;744;51.436;7.356;2023-03-29T08:32:34;2.60;;;2.40;;
1505;SDS011;744;51.436;7.356;2023-03-29T08:35:05;9.43;;;2.57;;
1505;SDS011;744;51.436;7.356;2023-03-29T08:37:35;7.33;;;2.73;;
1505;SDS011;744;51.436;7.356;2023-03-29T08:40:02;3.40;;;3.10;;
1505;SDS011;744;51.436;7.356;2023-03-29T08:45:24;3.70;;;2.87;;
1505;SDS011;744;51.436;7.356;2023-03-29T08:50:54;2.13;;;2.00;;
1505;SDS011;744;51.436;7.356;2023-03-29T08:56:14;5.60;;;2.47;;
1505;SDS011;744;51.436;7.356;2023-03-29T08:58:45;2.87;;;2.17;;
1505;SDS011;744;51.436;7.356;2023-03-29T09:01:13;14.43;;;4.03;;
1505;SDS011;744;51.436;7.356;2023-03-29T09:03:52;5.33;;;3.20;;
1505;SDS011;744;51.436;7.356;2023-03-29T09:06:37;2.50;;;2.30;;
1505;SDS011;744;51.436;7.356;2023-03-29T09:09:09;8.40;;;3.50;;
1505;SDS011;744;51.436;7.356;2023-03-29T09:14:29;4.90;;;2.90;;
1505;SDS011;744;51.436;7.356;2023-03-29T09:25:53;2.97;;;2.20;;
1505;SDS011;744;51.436;7.356;2023-03-29T09:28:35;4.10;;;2.57;;
1505;SDS011;744;51.436;7.356;2023-03-29T09:33:43;6.30;;;3.37;;
1505;SDS011;744;51.436;7.356;2023-03-29T09:38:50;6.03;;;2.83;;
1505;SDS011;744;51.436;7.356;2023-03-29T09:44:29;8.77;;;3.17;;
1505;SDS011;744;51.436;7.356;2023-03-29T09:49:39;3.60;;;2.50;;
1505;SDS011;744;51.436;7.356;2023-03-29T09:52:13;5.90;;;3.23;;
1505;SDS011;744;51.436;7.356;2023-03-29T09:54:42;5.03;;;2.73;;
1505;SDS011;744;51.436;7.356;2023-03-29T09:57:10;4.97;;;2.97;;
1505;SDS011;744;51.436;7.356;2023-03-29T09:59:38;6.23;;;2.93;;
1505;SDS011;744;51.436;7.356;2023-03-29T10:02:07;7.70;;;2.90;;
1505;SDS011;744;51.436;7.356;2023-03-29T10:04:37;4.50;;;2.90;;
1505;SDS011;744;51.436;7.356;2023-03-29T10:07:05;6.33;;;2.70;;
1505;SDS011;744;51.436;7.356;2023-03-29T10:09:33;6.13;;;3.17;;
1505;SDS011;744;51.436;7.356;2023-03-29T10:12:03;12.97;;;3.43;;
1505;SDS011;744;51.436;7.356;2023-03-29T10:14:32;11.80;;;3.47;;
1505;SDS011;744;51.436;7.356;2023-03-29T10:17:04;6.70;;;3.83;;
1505;SDS011;744;51.436;7.356;2023-03-29T10:20:02;7.90;;;3.40;;
1505;SDS011;744;51.436;7.356;2023-03-29T10:22:32;4.60;;;3.40;;
1505;SDS011;744;51.436;7.356;2023-03-29T10:25:03;6.03;;;3.20;;
1505;SDS011;744;51.436;7.356;2023-03-29T10:27:34;4.60;;;3.70;;
1505;SDS011;744;51.436;7.356;2023-03-29T10:30:07;4.70;;;2.87;;
1505;SDS011;744;51.436;7.356;2023-03-29T10:32:39;6.93;;;2.83;;
1505;SDS011;744;51.436;7.356;2023-03-29T10:37:34;5.53;;;3.07;;
1505;SDS011;744;51.436;7.356;2023-03-29T10:40:05;9.53;;;2.20;;
1505;SDS011;744;51.436;7.356;2023-03-29T10:42:45;6.53;;;3.30;;
1505;SDS011;744;51.436;7.356;2023-03-29T10:45:19;6.23;;;3.10;;
1505;SDS011;744;51.436;7.356;2023-03-29T10:47:53;10.23;;;5.00;;
1505;SDS011;744;51.436;7.356;2023-03-29T10:50:21;4.17;;;2.40;;
1505;SDS011;744;51.436;7.356;2023-03-29T10:52:48;5.70;;;2.53;;
1505;SDS011;744;51.436;7.356;2023-03-29T10:55:16;3.30;;;2.30;;
1505;SDS011;744;51.436;7.356;2023-03-29T10:58:03;3.50;;;2.80;;
1505;SDS011;744;51.436;7.356;2023-03-29T11:00:53;7.70;;;3.17;;
1505;SDS011;744;51.436;7.356;2023-03-29T11:03:42;6.67;;;2.67;;
1505;SDS011;744;51.436;7.356;2023-03-29T11:09:12;7.80;;;2.83;;
1505;SDS011;744;51.436;7.356;2023-03-29T11:11:52;4.07;;;2.80;;
1505;SDS011;744;51.436;7.356;2023-03-29T11:14:48;2.83;;;2.53;;
1505;SDS011;744;51.436;7.356;2023-03-29T11:36:50;5.43;;;3.30;;
1505;SDS011;744;51.436;7.356;2023-03-29T11:41:54;5.03;;;2.70;;
1505;SDS011;744;51.436;7.356;2023-03-29T11:44:30;2.30;;;2.10;;
1505;SDS011;744;51.436;7.356;2023-03-29T11:47:02;3.13;;;2.83;;
1505;SDS011;744;51.436;7.356;2023-03-29T11:49:51;5.83;;;2.33;;
1505;SDS011;744;51.436;7.356;2023-03-29T11:52:35;6.30;;;2.57;;
1505;SDS011;744;51.436;7.356;2023-03-29T11:55:14;3.53;;;2.43;;
1505;SDS011;744;51.436;7.356;2023-03-29T11:57:51;4.27;;;2.40;;
1505;SDS011;744;51.436;7.356;2023-03-29T12:00:39;2.90;;;2.20;;
1505;SDS011;744;51.436;7.356;2023-03-29T12:06:13;3.30;;;1.97;;
1505;SDS011;744;51.436;7.356;2023-03-29T12:14:14;3.40;;;2.30;;
1505;SDS011;744;51.436;7.356;2023-03-29T12:16:51;3.80;;;2.27;;
1505;SDS011;744;51.436;7.356;2023-03-29T12:21:55;5.60;;;3.10;;
1505;SDS011;744;51.436;7.356;2023-03-29T12:24:24;7.93;;;2.53;;
1505;SDS011;744;51.436;7.356;2023-03-29T12:40:40;5.70;;;2.80;;
1505;SDS011;744;51.436;7.356;2023-03-29T12:43:21;4.80;;;2.50;;
1505;SDS011;744;51.436;7.356;2023-03-29T12:45:57;6.77;;;2.60;;
1505;SDS011;744;51.436;7.356;2023-03-29T12:48:31;9.10;;;2.80;;
1505;SDS011;744;51.436;7.356;2023-03-29T12:56:15;4.43;;;2.93;;
1505;SDS011;744;51.436;7.356;2023-03-29T12:59:15;7.17;;;3.40;;
1505;SDS011;744;51.436;7.356;2023-03-29T13:07:13;5.53;;;2.50;;
1505;SDS011;744;51.436;7.356;2023-03-29T13:09:53;3.40;;;2.70;;
1505;SDS011;744;51.436;7.356;2023-03-29T13:12:34;3.33;;;2.67;;
1505;SDS011;744;51.436;7.356;2023-03-29T13:23:47;2.27;;;2.07;;
1505;SDS011;744;51.436;7.356;2023-03-29T13:32:46;4.13;;;3.20;;
1505;SDS011;744;51.436;7.356;2023-03-29T13:38:21;4.30;;;2.80;;
1505;SDS011;744;51.436;7.356;2023-03-29T13:43:21;3.97;;;3.10;;
1505;SDS011;744;51.436;7.356;2023-03-29T13:48:27;4.23;;;3.43;;
1505;SDS011;744;51.436;7.356;2023-03-29T13:50:56;4.67;;;2.93;;
1505;SDS011;744;51.436;7.356;2023-03-29T13:53:34;4.10;;;3.27;;
1505;SDS011;744;51.436;7.356;2023-03-29T13:56:05;3.67;;;3.27;;
1505;SDS011;744;51.436;7.356;2023-03-29T13:58:43;6.57;;;3.07;;
1505;SDS011;744;51.436;7.356;2023-03-29T14:01:48;5.00;;;4.00;;
1505;SDS011;744;51.436;7.356;2023-03-29T14:04:10;3.20;;;2.90;;
1505;SDS011;744;51.436;7.356;2023-03-29T14:06:42;6.10;;;3.27;;
1505;SDS011;744;51.436;7.356;2023-03-29T14:09:16;3.33;;;3.03;;
1505;SDS011;744;51.436;7.356;2023-03-29T14:11:44;4.73;;;2.30;;
1505;SDS011;744;51.436;7.356;2023-03-29T14:14:12;6.57;;;3.10;;
1505;SDS011;744;51.436;7.356;2023-03-29T14:16:40;6.20;;;2.93;;
1505;SDS011;744;51.436;7.356;2023-03-29T14:19:50;3.83;;;3.07;;
1505;SDS011;744;51.436;7.356;2023-03-29T14:22:01;4.47;;;2.53;;
1505;SDS011;744;51.436;7.356;2023-03-29T14:24:36;2.83;;;2.50;;
1505;SDS011;744;51.436;7.356;2023-03-29T14:27:05;7.83;;;2.33;;
1505;SDS011;744;51.436;7.356;2023-03-29T14:29:35;2.87;;;2.50;;
1505;SDS011;744;51.436;7.356;2023-03-29T14:32:12;6.57;;;3.53;;
1505;SDS011;744;51.436;7.356;2023-03-29T14:34:46;4.10;;;3.47;;
1505;SDS011;744;51.436;7.356;2023-03-29T14:37:20;4.70;;;2.53;;
1505;SDS011;744;51.436;7.356;2023-03-29T14:39:49;7.97;;;3.50;;
1505;SDS011;744;51.436;7.356;2023-03-29T14:42:18;2.93;;;2.37;;
1505;SDS011;744;51.436;7.356;2023-03-29T14:44:47;4.23;;;2.30;;
1505;SDS011;744;51.436;7.356;2023-03-29T14:47:27;3.80;;;2.03;;
1505;SDS011;744;51.436;7.356;2023-03-29T14:49:56;6.03;;;3.03;;
1505;SDS011;744;51.436;7.356;2023-03-29T14:52:29;7.03;;;3.00;;
1505;SDS011;744;51.436;7.356;2023-03-29T14:54:57;8.27;;;2.63;;
1505;SDS011;744;51.436;7.356;2023-03-29T14:57:26;5.03;;;2.53;;
1505;SDS011;744;51.436;7.356;2023-03-29T14:59:58;3.50;;;2.30;;
1505;SDS011;744;51.436;7.356;2023-03-29T15:02:32;4.67;;;2.47;;
1505;SDS011;744;51.436;7.356;2023-03-29T15:05:00;6.40;;;3.37;;
1505;SDS011;744;51.436;7.356;2023-03-29T15:07:32;3.83;;;2.20;;
1505;SDS011;744;51.436;7.356;2023-03-29T15:10:02;4.30;;;2.50;;
1505;SDS011;744;51.436;7.356;2023-03-29T15:12:33;3.23;;;2.07;;
1505;SDS011;744;51.436;7.356;2023-03-29T15:15:03;3.87;;;2.27;;
1505;SDS011;744;51.436;7.356;2023-03-29T15:17:33;4.00;;;2.97;;
1505;SDS011;744;51.436;7.356;2023-03-29T15:20:20;2.47;;;2.27;;
1505;SDS011;744;51.436;7.356;2023-03-29T15:23:01;5.70;;;2.20;;
1505;SDS011;744;51.436;7.356;2023-03-29T15:25:34;6.73;;;2.60;;
1505;SDS011;744;51.436;7.356;2023-03-29T15:28:03;4.87;;;2.93;;
1505;SDS011;744;51.436;7.356;2023-03-29T15:30:34;5.10;;;2.70;;
1505;SDS011;744;51.436;7.356;2023-03-29T15:33:22;2.70;;;2.47;;
1505;SDS011;744;51.436;7.356;2023-03-29T15:35:51;3.20;;;2.40;;
1505;SDS011;744;51.436;7.356;2023-03-29T15:38:19;5.57;;;2.50;;
1505;SDS011;744;51.436;7.356;2023-03-29T15:40:58;5.70;;;2.10;;
1505;SDS011;744;51.436;7.356;2023-03-29T15:43:26;4.43;;;2.57;;
1505;SDS011;744;51.436;7.356;2023-03-29T15:45:53;3.60;;;2.50;;
1505;SDS011;744;51.436;7.356;2023-03-29T15:48:22;4.37;;;2.40;;
1505;SDS011;744;51.436;7.356;2023-03-29T15:50:51;4.80;;;1.80;;
1505;SDS011;744;51.436;7.356;2023-03-29T15:53:18;4.70;;;2.40;;
1505;SDS011;744;51.436;7.356;2023-03-29T15:55:47;5.67;;;2.80;;
1505;SDS011;744;51.436;7.356;2023-03-29T15:58:18;4.80;;;3.07;;
1505;SDS011;744;51.436;7.356;2023-03-29T16:00:52;4.40;;;2.80;;
1505;SDS011;744;51.436;7.356;2023-03-29T16:03:41;15.33;;;3.00;;
1505;SDS011;744;51.436;7.356;2023-03-29T16:06:12;5.10;;;2.03;;
1505;SDS011;744;51.436;7.356;2023-03-29T16:08:39;1.90;;;1.70;;
1505;SDS011;744;51.436;7.356;2023-03-29T16:11:07;2.20;;;2.00;;
1505;SDS011;744;51.436;7.356;2023-03-29T16:13:34;5.63;;;1.70;;
1505;SDS011;744;51.436;7.356;2023-03-29T16:16:01;7.50;;;2.63;;
1505;SDS011;744;51.436;7.356;2023-03-29T16:18:28;3.00;;;2.43;;
1505;SDS011;744;51.436;7.356;2023-03-29T16:20:55;3.87;;;1.50;;
1505;SDS011;744;51.436;7.356;2023-03-29T16:23:22;5.20;;;2.20;;
1505;SDS011;744;51.436;7.356;2023-03-29T16:25:48;4.17;;;1.57;;
1505;SDS011;744;51.436;7.356;2023-03-29T16:28:15;5.70;;;1.47;;
1505;SDS011;744;51.436;7.356;2023-03-29T16:30:42;1.97;;;1.23;;
1505;SDS011;744;51.436;7.356;2023-03-29T16:33:09;3.97;;;1.17;;
1505;SDS011;744;51.436;7.356;2023-03-29T16:35:37;5.10;;;1.90;;
1505;SDS011;744;51.436;7.356;2023-03-29T16:38:07;1.27;;;1.17;;
1505;SDS011;744;51.436;7.356;2023-03-29T16:40:35;4.00;;;2.30;;
1505;SDS011;744;51.436;7.356;2023-03-29T16:43:02;2.33;;;2.07;;
1505;SDS011;744;51.436;7.356;2023-03-29T16:45:29;4.10;;;1.73;;
1505;SDS011;744;51.436;7.356;2023-03-29T16:47:56;4.20;;;1.83;;
1505;SDS011;744;51.436;7.356;2023-03-29T16:50:23;3.73;;;2.00;;
1505;SDS011;744;51.436;7.356;2023-03-29T16:52:50;3.00;;;1.40;;
1505;SDS011;744;51.436;7.356;2023-03-29T16:55:17;4.50;;;2.00;;
1505;SDS011;744;51.436;7.356;2023-03-29T16:57:45;1.77;;;1.40;;
1505;SDS011;744;51.436;7.356;2023-03-29T17:00:13;4.83;;;1.40;;
1505;SDS011;744;51.436;7.356;2023-03-29T17:02:42;2.30;;;1.30;;
1505;SDS011;744;51.436;7.356;2023-03-29T17:05:10;3.47;;;2.53;;
1505;SDS011;744;51.436;7.356;2023-03-29T17:07:37;5.30;;;3.33;;
1505;SDS011;744;51.436;7.356;2023-03-29T17:10:05;2.30;;;1.30;;
1505;SDS011;744;51.436;7.356;2023-03-29T17:12:33;3.67;;;1.70;;
1505;SDS011;744;51.436;7.356;2023-03-29T17:15:00;2.53;;;1.70;;
1505;SDS011;744;51.436;7.356;2023-03-29T17:17:28;1.70;;;1.37;;
1505;SDS011;744;51.436;7.356;2023-03-29T17:19:55;4.60;;;2.00;;
1505;SDS011;744;51.436;7.356;2023-03-29T17:22:22;3.57;;;1.70;;
1505;SDS011;744;51.436;7.356;2023-03-29T17:24:49;2.43;;;1.20;;
1505;SDS011;744;51.436;7.356;2023-03-29T17:27:16;3.20;;;1.87;;
1505;SDS011;744;51.436;7.356;2023-03-29T17:29:43;1.60;;;1.40;;
1505;SDS011;744;51.436;7.356;2023-03-29T17:32:10;6.87;;;1.73;;
1505;SDS011;744;51.436;7.356;2023-03-29T17:34:37;2.57;;;1.67;;
1505;SDS011;744;51.436;7.356;2023-03-29T17:37:04;3.40;;;1.80;;
1505;SDS011;744;51.436;7.356;2023-03-29T17:39:31;5.73;;;3.63;;
1505;SDS011;744;51.436;7.356;2023-03-29T17:42:02;2.87;;;1.70;;
1505;SDS011;744;51.436;7.356;2023-03-29T17:44:30;9.00;;;2.80;;
1505;SDS011;744;51.436;7.356;2023-03-29T17:46:58;2.40;;;1.77;;
1505;SDS011;744;51.436;7.356;2023-03-29T17:49:26;2.80;;;1.70;;
1505;SDS011;744;51.436;7.356;2023-03-29T17:51:53;2.57;;;1.30;;
1505;SDS011;744;51.436;7.356;2023-03-29T17:54:20;2.30;;;1.70;;
1505;SDS011;744;51.436;7.356;2023-03-29T17:56:46;3.73;;;1.60;;
1505;SDS011;744;51.436;7.356;2023-03-29T17:59:14;5.83;;;1.60;;
1505;SDS011;744;51.436;7.356;2023-03-29T18:01:41;4.80;;;2.17;;
1505;SDS011;744;51.436;7.356;2023-03-29T18:04:08;2.80;;;2.00;;
1505;SDS011;744;51.436;7.356;2023-03-29T18:06:35;1.80;;;1.37;;